sensor_id;sensor_type;location;lat;lon;timestamp;P1;durP1;ratioP1;P2;durP2;ratioP2
7539;SDS011;3811;49.006;12.076;2023-07-13T00:00:05;10.30;;;4.70;;
7539;SDS011;3811;49.006;12.076;2023-07-13T00:02:38;4.73;;;4.10;;
7539;SDS011;3811;49.006;12.076;2023-07-13T00:05:05;4.37;;;3.80;;
7539;SDS011;3811;49.006;12.076;2023-07-13T00:07:33;5.60;;;3.50;;
7539;SDS011;3811;49.006;12.076;2023-07-13T00:10:00;4.17;;;3.70;;
7539;SDS011;3811;49.006;12.076;2023-07-13T00:12:28;4.03;;;3.63;;
7539;SDS011;3811;49.006;12.076;2023-07-13T00:14:58;4.90;;;3.30;;
7539;SDS011;3811;49.006;12.076;2023-07-13T00:17:28;4.97;;;3.77;;
7539;SDS011;3811;49.006;12.076;2023-07-13T00:19:55;3.83;;;3.40;;
7539;SDS011;3811;49.006;12.076;2023-07-13T00:22:23;3.87;;;3.47;;
7539;SDS011;3811;49.006;12.076;2023-07-13T00:24:51;4.40;;;3.73;;
7539;SDS011;3811;49.006;12.076;2023-07-13T00:27:22;3.70;;;3.40;;
7539;SDS011;3811;49.006;12.076;2023-07-13T00:29:51;4.43;;;4.00;;
7539;SDS011;3811;49.006;12.076;2023-07-13T00:32:18;3.70;;;3.40;;
7539;SDS011;3811;49.006;12.076;2023-07-13T00:34:47;3.70;;;3.40;;
7539;SDS011;3811;49.006;12.076;2023-07-13T00:37:15;3.83;;;3.53;;
7539;SDS011;3811;49.006;12.076;2023-07-13T00:39:43;4.93;;;3.93;;
7539;SDS011;3811;49.006;12.076;2023-07-13T00:42:10;3.63;;;3.33;;
7539;SDS011;3811;49.006;12.076;2023-07-13T00:44:38;4.43;;;3.43;;
7539;SDS011;3811;49.006;12.076;2023-07-13T00:47:05;4.33;;;3.93;;
7539;SDS011;3811;49.006;12.076;2023-07-13T00:49:33;4.20;;;3.80;;
7539;SDS011;3811;49.006;12.076;2023-07-13T00:52:05;7.50;;;3.80;;
7539;SDS011;3811;49.006;12.076;2023-07-13T00:54:36;4.63;;;4.23;;
7539;SDS011;3811;49.006;12.076;2023-07-13T00:57:06;5.20;;;3.80;;
7539;SDS011;3811;49.006;12.076;2023-07-13T00:59:38;4.07;;;3.77;;
7539;SDS011;3811;49.006;12.076;2023-07-13T01:02:07;4.00;;;3.60;;
7539;SDS011;3811;49.006;12.076;2023-07-13T01:04:34;5.67;;;4.13;;
7539;SDS011;3811;49.006;12.076;2023-07-13T01:07:05;4.10;;;3.80;;
7539;SDS011;3811;49.006;12.076;2023-07-13T01:09:33;3.83;;;3.17;;
7539;SDS011;3811;49.006;12.076;2023-07-13T01:12:00;5.20;;;3.90;;
7539;SDS011;3811;49.006;12.076;2023-07-13T01:14:29;4.93;;;3.90;;
7539;SDS011;3811;49.006;12.076;2023-07-13T01:16:56;5.00;;;3.87;;
7539;SDS011;3811;49.006;12.076;2023-07-13T01:19:27;4.53;;;4.10;;
7539;SDS011;3811;49.006;12.076;2023-07-13T01:22:03;5.27;;;4.40;;
7539;SDS011;3811;49.006;12.076;2023-07-13T01:24:34;5.20;;;4.70;;
7539;SDS011;3811;49.006;12.076;2023-07-13T01:27:01;6.53;;;4.90;;
7539;SDS011;3811;49.006;12.076;2023-07-13T01:29:29;5.43;;;4.63;;
7539;SDS011;3811;49.006;12.076;2023-07-13T01:31:57;5.43;;;4.90;;
7539;SDS011;3811;49.006;12.076;2023-07-13T01:34:25;5.23;;;4.80;;
7539;SDS011;3811;49.006;12.076;2023-07-13T01:36:52;6.70;;;5.60;;
7539;SDS011;3811;49.006;12.076;2023-07-13T01:39:21;5.63;;;5.13;;
7539;SDS011;3811;49.006;12.076;2023-07-13T01:41:48;6.20;;;5.30;;
7539;SDS011;3811;49.006;12.076;2023-07-13T01:44:19;6.17;;;5.57;;
7539;SDS011;3811;49.006;12.076;2023-07-13T01:46:46;6.87;;;6.17;;
7539;SDS011;3811;49.006;12.076;2023-07-13T01:49:13;6.93;;;6.33;;
7539;SDS011;3811;49.006;12.076;2023-07-13T01:51:40;8.13;;;6.80;;
7539;SDS011;3811;49.006;12.076;2023-07-13T01:54:07;7.17;;;6.57;;
7539;SDS011;3811;49.006;12.076;2023-07-13T01:56:36;7.20;;;6.60;;
7539;SDS011;3811;49.006;12.076;2023-07-13T01:59:02;7.80;;;6.97;;
7539;SDS011;3811;49.006;12.076;2023-07-13T02:01:30;7.63;;;5.93;;
7539;SDS011;3811;49.006;12.076;2023-07-13T02:03:57;7.23;;;6.20;;
7539;SDS011;3811;49.006;12.076;2023-07-13T02:06:23;7.03;;;5.77;;
7539;SDS011;3811;49.006;12.076;2023-07-13T02:08:51;9.93;;;6.50;;
7539;SDS011;3811;49.006;12.076;2023-07-13T02:11:17;8.23;;;6.23;;
7539;SDS011;3811;49.006;12.076;2023-07-13T02:13:46;7.20;;;6.57;;
7539;SDS011;3811;49.006;12.076;2023-07-13T02:16:13;8.13;;;6.17;;
7539;SDS011;3811;49.006;12.076;2023-07-13T02:18:41;7.07;;;6.27;;
7539;SDS011;3811;49.006;12.076;2023-07-13T02:21:08;7.00;;;6.30;;
7539;SDS011;3811;49.006;12.076;2023-07-13T02:23:35;7.27;;;6.07;;
7539;SDS011;3811;49.006;12.076;2023-07-13T02:26:03;7.30;;;5.70;;
7539;SDS011;3811;49.006;12.076;2023-07-13T02:28:31;6.30;;;5.80;;
7539;SDS011;3811;49.006;12.076;2023-07-13T02:31:05;6.13;;;5.60;;
7539;SDS011;3811;49.006;12.076;2023-07-13T02:33:32;6.67;;;5.63;;
7539;SDS011;3811;49.006;12.076;2023-07-13T02:35:59;8.13;;;5.70;;
7539;SDS011;3811;49.006;12.076;2023-07-13T02:38:27;7.67;;;5.90;;
7539;SDS011;3811;49.006;12.076;2023-07-13T02:40:54;6.50;;;5.80;;
7539;SDS011;3811;49.006;12.076;2023-07-13T02:43:21;6.60;;;5.33;;
7539;SDS011;3811;49.006;12.076;2023-07-13T02:45:48;6.40;;;4.90;;
7539;SDS011;3811;49.006;12.076;2023-07-13T02:48:17;8.77;;;5.73;;
7539;SDS011;3811;49.006;12.076;2023-07-13T02:50:44;5.53;;;5.13;;
7539;SDS011;3811;49.006;12.076;2023-07-13T02:53:11;5.63;;;5.13;;
7539;SDS011;3811;49.006;12.076;2023-07-13T02:55:39;7.80;;;5.37;;
7539;SDS011;3811;49.006;12.076;2023-07-13T02:58:12;8.63;;;5.80;;
7539;SDS011;3811;49.006;12.076;2023-07-13T03:00:42;7.27;;;5.10;;
7539;SDS011;3811;49.006;12.076;2023-07-13T03:03:11;6.90;;;5.20;;
7539;SDS011;3811;49.006;12.076;2023-07-13T03:05:41;6.37;;;5.17;;
7539;SDS011;3811;49.006;12.076;2023-07-13T03:08:16;8.30;;;5.10;;
7539;SDS011;3811;49.006;12.076;2023-07-13T03:10:44;5.43;;;4.93;;
7539;SDS011;3811;49.006;12.076;2023-07-13T03:13:12;6.10;;;4.83;;
7539;SDS011;3811;49.006;12.076;2023-07-13T03:15:39;5.10;;;4.50;;
7539;SDS011;3811;49.006;12.076;2023-07-13T03:18:06;5.80;;;5.10;;
7539;SDS011;3811;49.006;12.076;2023-07-13T03:20:33;7.73;;;5.20;;
7539;SDS011;3811;49.006;12.076;2023-07-13T03:23:03;7.53;;;5.60;;
7539;SDS011;3811;49.006;12.076;2023-07-13T03:25:30;6.77;;;5.60;;
7539;SDS011;3811;49.006;12.076;2023-07-13T03:27:59;8.60;;;5.17;;
7539;SDS011;3811;49.006;12.076;2023-07-13T03:30:26;6.17;;;5.40;;
7539;SDS011;3811;49.006;12.076;2023-07-13T03:32:54;5.97;;;5.03;;
7539;SDS011;3811;49.006;12.076;2023-07-13T03:35:21;7.97;;;5.23;;
7539;SDS011;3811;49.006;12.076;2023-07-13T03:37:48;9.07;;;5.70;;
7539;SDS011;3811;49.006;12.076;2023-07-13T03:40:20;6.10;;;5.00;;
7539;SDS011;3811;49.006;12.076;2023-07-13T03:42:47;8.30;;;5.60;;
7539;SDS011;3811;49.006;12.076;2023-07-13T03:45:16;5.93;;;5.33;;
7539;SDS011;3811;49.006;12.076;2023-07-13T03:47:43;9.20;;;5.67;;
7539;SDS011;3811;49.006;12.076;2023-07-13T03:50:11;6.37;;;5.00;;
7539;SDS011;3811;49.006;12.076;2023-07-13T03:52:38;7.13;;;6.07;;
7539;SDS011;3811;49.006;12.076;2023-07-13T03:55:05;6.57;;;5.33;;
7539;SDS011;3811;49.006;12.076;2023-07-13T03:57:34;6.93;;;5.47;;
7539;SDS011;3811;49.006;12.076;2023-07-13T04:00:03;11.57;;;5.97;;
7539;SDS011;3811;49.006;12.076;2023-07-13T04:02:41;7.97;;;5.70;;
7539;SDS011;3811;49.006;12.076;2023-07-13T04:05:08;7.40;;;6.20;;
7539;SDS011;3811;49.006;12.076;2023-07-13T04:07:35;9.27;;;6.17;;
7539;SDS011;3811;49.006;12.076;2023-07-13T04:10:03;6.90;;;6.23;;
7539;SDS011;3811;49.006;12.076;2023-07-13T04:12:31;9.80;;;6.23;;
7539;SDS011;3811;49.006;12.076;2023-07-13T04:14:59;9.07;;;7.03;;
7539;SDS011;3811;49.006;12.076;2023-07-13T04:17:28;9.33;;;6.07;;
7539;SDS011;3811;49.006;12.076;2023-07-13T04:19:55;8.30;;;6.50;;
7539;SDS011;3811;49.006;12.076;2023-07-13T04:22:23;11.43;;;7.07;;
7539;SDS011;3811;49.006;12.076;2023-07-13T04:24:50;8.00;;;6.60;;
7539;SDS011;3811;49.006;12.076;2023-07-13T04:27:17;12.43;;;7.57;;
7539;SDS011;3811;49.006;12.076;2023-07-13T04:29:44;12.33;;;7.63;;
7539;SDS011;3811;49.006;12.076;2023-07-13T04:32:13;10.60;;;7.80;;
7539;SDS011;3811;49.006;12.076;2023-07-13T04:34:39;8.70;;;6.97;;
7539;SDS011;3811;49.006;12.076;2023-07-13T04:37:06;9.37;;;6.40;;
7539;SDS011;3811;49.006;12.076;2023-07-13T04:39:33;9.80;;;6.63;;
7539;SDS011;3811;49.006;12.076;2023-07-13T04:42:00;8.63;;;6.57;;
7539;SDS011;3811;49.006;12.076;2023-07-13T04:44:27;8.60;;;5.73;;
7539;SDS011;3811;49.006;12.076;2023-07-13T04:46:55;7.73;;;5.63;;
7539;SDS011;3811;49.006;12.076;2023-07-13T04:49:23;8.53;;;5.27;;
7539;SDS011;3811;49.006;12.076;2023-07-13T04:51:50;8.03;;;5.73;;
7539;SDS011;3811;49.006;12.076;2023-07-13T04:54:17;14.03;;;4.97;;
7539;SDS011;3811;49.006;12.076;2023-07-13T04:56:45;5.87;;;5.00;;
7539;SDS011;3811;49.006;12.076;2023-07-13T04:59:12;6.47;;;4.37;;
7539;SDS011;3811;49.006;12.076;2023-07-13T05:01:39;5.07;;;3.93;;
7539;SDS011;3811;49.006;12.076;2023-07-13T05:04:06;9.07;;;4.47;;
7539;SDS011;3811;49.006;12.076;2023-07-13T05:06:35;5.67;;;4.40;;
7539;SDS011;3811;49.006;12.076;2023-07-13T05:09:02;6.27;;;4.40;;
7539;SDS011;3811;49.006;12.076;2023-07-13T05:11:29;6.37;;;4.10;;
7539;SDS011;3811;49.006;12.076;2023-07-13T05:13:56;5.33;;;3.80;;
7539;SDS011;3811;49.006;12.076;2023-07-13T05:16:23;4.47;;;4.03;;
7539;SDS011;3811;49.006;12.076;2023-07-13T05:18:51;7.83;;;3.73;;
7539;SDS011;3811;49.006;12.076;2023-07-13T05:21:18;5.17;;;3.30;;
7539;SDS011;3811;49.006;12.076;2023-07-13T05:23:46;5.27;;;4.40;;
7539;SDS011;3811;49.006;12.076;2023-07-13T05:26:13;6.77;;;4.10;;
7539;SDS011;3811;49.006;12.076;2023-07-13T05:28:40;5.93;;;3.80;;
7539;SDS011;3811;49.006;12.076;2023-07-13T05:31:10;11.07;;;4.10;;
7539;SDS011;3811;49.006;12.076;2023-07-13T05:33:37;8.83;;;3.33;;
7539;SDS011;3811;49.006;12.076;2023-07-13T05:36:04;7.60;;;3.40;;
7539;SDS011;3811;49.006;12.076;2023-07-13T05:38:32;9.90;;;3.43;;
7539;SDS011;3811;49.006;12.076;2023-07-13T05:41:01;7.40;;;3.40;;
7539;SDS011;3811;49.006;12.076;2023-07-13T05:43:27;4.77;;;3.13;;
7539;SDS011;3811;49.006;12.076;2023-07-13T05:45:56;3.97;;;2.60;;
7539;SDS011;3811;49.006;12.076;2023-07-13T05:48:24;4.77;;;3.13;;
7539;SDS011;3811;49.006;12.076;2023-07-13T05:50:51;4.70;;;2.57;;
7539;SDS011;3811;49.006;12.076;2023-07-13T05:53:18;2.73;;;2.43;;
7539;SDS011;3811;49.006;12.076;2023-07-13T05:55:46;6.87;;;2.40;;
7539;SDS011;3811;49.006;12.076;2023-07-13T05:58:16;4.33;;;2.30;;
7539;SDS011;3811;49.006;12.076;2023-07-13T06:00:43;2.17;;;2.07;;
7539;SDS011;3811;49.006;12.076;2023-07-13T06:03:11;3.63;;;2.80;;
7539;SDS011;3811;49.006;12.076;2023-07-13T06:05:38;2.80;;;2.30;;
7539;SDS011;3811;49.006;12.076;2023-07-13T06:08:06;4.37;;;1.97;;
7539;SDS011;3811;49.006;12.076;2023-07-13T06:10:34;3.50;;;2.40;;
7539;SDS011;3811;49.006;12.076;2023-07-13T06:13:01;2.97;;;2.03;;
7539;SDS011;3811;49.006;12.076;2023-07-13T06:15:29;2.30;;;2.10;;
7539;SDS011;3811;49.006;12.076;2023-07-13T06:17:56;3.00;;;2.10;;
7539;SDS011;3811;49.006;12.076;2023-07-13T06:20:23;3.23;;;2.23;;
7539;SDS011;3811;49.006;12.076;2023-07-13T06:22:50;4.57;;;2.00;;
7539;SDS011;3811;49.006;12.076;2023-07-13T06:25:18;2.67;;;1.97;;
7539;SDS011;3811;49.006;12.076;2023-07-13T06:27:45;4.67;;;2.40;;
7539;SDS011;3811;49.006;12.076;2023-07-13T06:30:12;3.93;;;2.37;;
7539;SDS011;3811;49.006;12.076;2023-07-13T06:32:41;2.67;;;2.20;;
7539;SDS011;3811;49.006;12.076;2023-07-13T06:35:08;5.07;;;2.10;;
7539;SDS011;3811;49.006;12.076;2023-07-13T06:37:37;3.37;;;2.20;;
7539;SDS011;3811;49.006;12.076;2023-07-13T06:40:05;4.50;;;2.10;;
7539;SDS011;3811;49.006;12.076;2023-07-13T06:42:32;2.07;;;1.70;;
7539;SDS011;3811;49.006;12.076;2023-07-13T06:44:59;2.27;;;1.90;;
7539;SDS011;3811;49.006;12.076;2023-07-13T06:47:26;2.40;;;2.17;;
7539;SDS011;3811;49.006;12.076;2023-07-13T06:49:55;3.43;;;2.10;;
7539;SDS011;3811;49.006;12.076;2023-07-13T06:52:22;4.30;;;1.90;;
7539;SDS011;3811;49.006;12.076;2023-07-13T06:54:49;3.63;;;1.93;;
7539;SDS011;3811;49.006;12.076;2023-07-13T06:57:16;3.17;;;2.00;;
7539;SDS011;3811;49.006;12.076;2023-07-13T06:59:43;2.80;;;2.20;;
7539;SDS011;3811;49.006;12.076;2023-07-13T07:02:10;3.20;;;2.03;;
7539;SDS011;3811;49.006;12.076;2023-07-13T07:04:37;4.77;;;2.97;;
7539;SDS011;3811;49.006;12.076;2023-07-13T07:07:06;2.87;;;2.00;;
7539;SDS011;3811;49.006;12.076;2023-07-13T07:09:33;3.00;;;1.97;;
7539;SDS011;3811;49.006;12.076;2023-07-13T07:12:00;3.47;;;2.03;;
7539;SDS011;3811;49.006;12.076;2023-07-13T07:14:27;5.23;;;2.37;;
7539;SDS011;3811;49.006;12.076;2023-07-13T07:16:54;2.20;;;2.00;;
7539;SDS011;3811;49.006;12.076;2023-07-13T07:19:23;6.63;;;2.37;;
7539;SDS011;3811;49.006;12.076;2023-07-13T07:21:50;3.43;;;1.93;;
7539;SDS011;3811;49.006;12.076;2023-07-13T07:24:19;2.43;;;2.20;;
7539;SDS011;3811;49.006;12.076;2023-07-13T07:26:45;3.30;;;2.10;;
7539;SDS011;3811;49.006;12.076;2023-07-13T07:29:13;3.03;;;2.03;;
7539;SDS011;3811;49.006;12.076;2023-07-13T07:31:40;4.47;;;2.27;;
7539;SDS011;3811;49.006;12.076;2023-07-13T07:34:07;2.97;;;2.10;;
7539;SDS011;3811;49.006;12.076;2023-07-13T07:36:35;2.40;;;1.77;;
7539;SDS011;3811;49.006;12.076;2023-07-13T07:39:01;8.30;;;1.97;;
7539;SDS011;3811;49.006;12.076;2023-07-13T07:41:31;2.90;;;1.80;;
7539;SDS011;3811;49.006;12.076;2023-07-13T07:43:58;4.60;;;2.00;;
7539;SDS011;3811;49.006;12.076;2023-07-13T07:46:25;2.90;;;2.00;;
7539;SDS011;3811;49.006;12.076;2023-07-13T07:48:55;3.43;;;2.00;;
7539;SDS011;3811;49.006;12.076;2023-07-13T07:51:22;2.10;;;2.00;;
7539;SDS011;3811;49.006;12.076;2023-07-13T07:53:49;2.10;;;1.90;;
7539;SDS011;3811;49.006;12.076;2023-07-13T07:56:16;2.63;;;1.90;;
7539;SDS011;3811;49.006;12.076;2023-07-13T07:58:45;2.50;;;1.77;;
7539;SDS011;3811;49.006;12.076;2023-07-13T08:01:12;1.97;;;1.87;;
7539;SDS011;3811;49.006;12.076;2023-07-13T08:03:39;4.53;;;2.03;;
7539;SDS011;3811;49.006;12.076;2023-07-13T08:06:06;1.93;;;1.83;;
7539;SDS011;3811;49.006;12.076;2023-07-13T08:08:34;1.97;;;1.83;;
7539;SDS011;3811;49.006;12.076;2023-07-13T08:11:02;1.60;;;1.50;;
7539;SDS011;3811;49.006;12.076;2023-07-13T08:13:29;3.27;;;1.80;;
7539;SDS011;3811;49.006;12.076;2023-07-13T08:15:57;3.90;;;2.00;;
7539;SDS011;3811;49.006;12.076;2023-07-13T08:18:25;2.70;;;1.90;;
7539;SDS011;3811;49.006;12.076;2023-07-13T08:20:54;4.10;;;1.83;;
7539;SDS011;3811;49.006;12.076;2023-07-13T08:23:22;2.03;;;1.80;;
7539;SDS011;3811;49.006;12.076;2023-07-13T08:25:52;3.70;;;1.63;;
7539;SDS011;3811;49.006;12.076;2023-07-13T08:28:29;2.47;;;1.90;;
7539;SDS011;3811;49.006;12.076;2023-07-13T08:31:01;3.03;;;1.90;;
7539;SDS011;3811;49.006;12.076;2023-07-13T08:33:53;2.53;;;1.77;;
7539;SDS011;3811;49.006;12.076;2023-07-13T08:36:20;4.33;;;1.60;;
7539;SDS011;3811;49.006;12.076;2023-07-13T08:38:47;2.43;;;1.60;;
7539;SDS011;3811;49.006;12.076;2023-07-13T08:41:15;2.60;;;1.63;;
7539;SDS011;3811;49.006;12.076;2023-07-13T08:43:45;2.23;;;1.70;;
7539;SDS011;3811;49.006;12.076;2023-07-13T08:46:16;2.83;;;1.63;;
7539;SDS011;3811;49.006;12.076;2023-07-13T08:48:46;1.87;;;1.40;;
7539;SDS011;3811;49.006;12.076;2023-07-13T08:54:12;3.40;;;1.70;;
7539;SDS011;3811;49.006;12.076;2023-07-13T08:56:47;3.30;;;1.83;;
7539;SDS011;3811;49.006;12.076;2023-07-13T08:59:19;3.80;;;1.80;;
7539;SDS011;3811;49.006;12.076;2023-07-13T09:01:55;2.20;;;1.90;;
7539;SDS011;3811;49.006;12.076;2023-07-13T09:04:34;4.53;;;1.70;;
7539;SDS011;3811;49.006;12.076;2023-07-13T09:07:07;3.13;;;1.50;;
7539;SDS011;3811;49.006;12.076;2023-07-13T09:09:43;2.70;;;2.00;;
7539;SDS011;3811;49.006;12.076;2023-07-13T09:12:19;2.30;;;1.67;;
7539;SDS011;3811;49.006;12.076;2023-07-13T09:14:53;3.63;;;1.83;;
7539;SDS011;3811;49.006;12.076;2023-07-13T09:17:24;2.43;;;1.80;;
7539;SDS011;3811;49.006;12.076;2023-07-13T09:19:56;4.10;;;1.93;;
7539;SDS011;3811;49.006;12.076;2023-07-13T09:22:25;4.57;;;2.47;;
7539;SDS011;3811;49.006;12.076;2023-07-13T09:24:55;3.10;;;1.90;;
7539;SDS011;3811;49.006;12.076;2023-07-13T09:27:29;2.40;;;1.90;;
7539;SDS011;3811;49.006;12.076;2023-07-13T09:30:02;3.67;;;2.30;;
7539;SDS011;3811;49.006;12.076;2023-07-13T09:32:51;3.17;;;2.00;;
7539;SDS011;3811;49.006;12.076;2023-07-13T09:35:21;4.60;;;2.10;;
7539;SDS011;3811;49.006;12.076;2023-07-13T09:37:52;2.70;;;1.87;;
7539;SDS011;3811;49.006;12.076;2023-07-13T09:40:24;2.47;;;1.90;;
7539;SDS011;3811;49.006;12.076;2023-07-13T09:42:59;2.77;;;1.63;;
7539;SDS011;3811;49.006;12.076;2023-07-13T09:45:29;1.93;;;1.73;;
7539;SDS011;3811;49.006;12.076;2023-07-13T09:48:10;1.83;;;1.70;;
7539;SDS011;3811;49.006;12.076;2023-07-13T09:50:38;4.20;;;1.90;;
7539;SDS011;3811;49.006;12.076;2023-07-13T09:53:11;1.43;;;1.30;;
7539;SDS011;3811;49.006;12.076;2023-07-13T09:55:39;1.77;;;1.63;;
7539;SDS011;3811;49.006;12.076;2023-07-13T09:58:09;1.70;;;1.60;;
7539;SDS011;3811;49.006;12.076;2023-07-13T10:00:38;2.13;;;1.90;;
7539;SDS011;3811;49.006;12.076;2023-07-13T10:03:17;2.33;;;2.13;;
7539;SDS011;3811;49.006;12.076;2023-07-13T10:05:47;2.90;;;2.23;;
7539;SDS011;3811;49.006;12.076;2023-07-13T10:08:20;5.53;;;2.30;;
7539;SDS011;3811;49.006;12.076;2023-07-13T10:10:53;2.73;;;1.97;;
7539;SDS011;3811;49.006;12.076;2023-07-13T10:13:34;2.13;;;1.60;;
7539;SDS011;3811;49.006;12.076;2023-07-13T10:16:04;2.20;;;2.00;;
7539;SDS011;3811;49.006;12.076;2023-07-13T10:18:37;1.60;;;1.50;;
7539;SDS011;3811;49.006;12.076;2023-07-13T10:21:12;4.47;;;2.10;;
7539;SDS011;3811;49.006;12.076;2023-07-13T10:23:42;4.73;;;1.70;;
7539;SDS011;3811;49.006;12.076;2023-07-13T10:26:12;1.87;;;1.43;;
7539;SDS011;3811;49.006;12.076;2023-07-13T10:28:45;1.97;;;1.77;;
7539;SDS011;3811;49.006;12.076;2023-07-13T10:31:16;1.67;;;1.57;;
7539;SDS011;3811;49.006;12.076;2023-07-13T10:33:46;2.27;;;1.70;;
7539;SDS011;3811;49.006;12.076;2023-07-13T10:36:15;1.53;;;1.43;;
7539;SDS011;3811;49.006;12.076;2023-07-13T10:38:50;1.87;;;1.67;;
7539;SDS011;3811;49.006;12.076;2023-07-13T10:41:20;1.70;;;1.60;;
7539;SDS011;3811;49.006;12.076;2023-07-13T10:43:49;4.50;;;1.80;;
7539;SDS011;3811;49.006;12.076;2023-07-13T10:46:19;1.80;;;1.60;;
7539;SDS011;3811;49.006;12.076;2023-07-13T10:48:51;1.40;;;1.30;;
7539;SDS011;3811;49.006;12.076;2023-07-13T10:51:21;3.13;;;1.20;;
7539;SDS011;3811;49.006;12.076;2023-07-13T10:54:10;1.50;;;1.40;;
7539;SDS011;3811;49.006;12.076;2023-07-13T10:56:43;1.70;;;1.60;;
7539;SDS011;3811;49.006;12.076;2023-07-13T10:59:12;1.80;;;1.57;;
7539;SDS011;3811;49.006;12.076;2023-07-13T11:01:46;4.07;;;1.50;;
7539;SDS011;3811;49.006;12.076;2023-07-13T11:04:19;2.23;;;1.77;;
7539;SDS011;3811;49.006;12.076;2023-07-13T11:06:48;2.87;;;1.57;;
7539;SDS011;3811;49.006;12.076;2023-07-13T11:09:31;1.40;;;1.30;;
7539;SDS011;3811;49.006;12.076;2023-07-13T11:12:02;2.43;;;1.40;;
7539;SDS011;3811;49.006;12.076;2023-07-13T11:14:35;1.67;;;1.40;;
7539;SDS011;3811;49.006;12.076;2023-07-13T11:19:53;2.70;;;1.77;;
7539;SDS011;3811;49.006;12.076;2023-07-13T11:22:21;2.00;;;1.67;;
7539;SDS011;3811;49.006;12.076;2023-07-13T11:24:52;4.37;;;1.60;;
7539;SDS011;3811;49.006;12.076;2023-07-13T11:30:24;3.23;;;1.50;;
7539;SDS011;3811;49.006;12.076;2023-07-13T11:33:09;3.07;;;1.57;;
7539;SDS011;3811;49.006;12.076;2023-07-13T11:35:43;1.97;;;1.30;;
7539;SDS011;3811;49.006;12.076;2023-07-13T11:38:15;4.67;;;1.60;;
7539;SDS011;3811;49.006;12.076;2023-07-13T11:40:44;1.60;;;1.50;;
7539;SDS011;3811;49.006;12.076;2023-07-13T11:43:13;1.93;;;1.40;;
7539;SDS011;3811;49.006;12.076;2023-07-13T11:45:42;2.87;;;1.50;;
7539;SDS011;3811;49.006;12.076;2023-07-13T11:48:23;4.10;;;1.60;;
7539;SDS011;3811;49.006;12.076;2023-07-13T11:50:55;2.37;;;1.30;;
7539;SDS011;3811;49.006;12.076;2023-07-13T11:53:24;1.60;;;1.50;;
7539;SDS011;3811;49.006;12.076;2023-07-13T11:55:54;2.37;;;1.40;;
7539;SDS011;3811;49.006;12.076;2023-07-13T11:58:23;2.10;;;1.47;;
7539;SDS011;3811;49.006;12.076;2023-07-13T12:00:53;1.77;;;1.67;;
7539;SDS011;3811;49.006;12.076;2023-07-13T12:03:24;2.77;;;1.57;;
7539;SDS011;3811;49.006;12.076;2023-07-13T12:05:56;2.63;;;1.40;;
7539;SDS011;3811;49.006;12.076;2023-07-13T12:08:25;4.87;;;1.60;;
7539;SDS011;3811;49.006;12.076;2023-07-13T12:10:59;2.83;;;1.10;;
7539;SDS011;3811;49.006;12.076;2023-07-13T12:13:34;2.37;;;1.50;;
7539;SDS011;3811;49.006;12.076;2023-07-13T12:16:02;2.20;;;1.47;;
7539;SDS011;3811;49.006;12.076;2023-07-13T12:18:29;2.40;;;1.53;;
7539;SDS011;3811;49.006;12.076;2023-07-13T12:21:00;1.83;;;1.70;;
7539;SDS011;3811;49.006;12.076;2023-07-13T12:23:29;2.00;;;1.50;;
7539;SDS011;3811;49.006;12.076;2023-07-13T12:25:57;2.67;;;1.60;;
7539;SDS011;3811;49.006;12.076;2023-07-13T12:28:31;2.50;;;1.50;;
7539;SDS011;3811;49.006;12.076;2023-07-13T12:31:00;1.97;;;1.33;;
7539;SDS011;3811;49.006;12.076;2023-07-13T12:33:29;1.77;;;1.40;;
7539;SDS011;3811;49.006;12.076;2023-07-13T12:35:57;2.17;;;1.50;;
7539;SDS011;3811;49.006;12.076;2023-07-13T12:38:30;2.70;;;1.47;;
7539;SDS011;3811;49.006;12.076;2023-07-13T12:40:57;1.40;;;1.10;;
7539;SDS011;3811;49.006;12.076;2023-07-13T12:43:25;3.13;;;1.70;;
7539;SDS011;3811;49.006;12.076;2023-07-13T12:45:57;3.73;;;1.50;;
7539;SDS011;3811;49.006;12.076;2023-07-13T12:48:25;4.00;;;1.47;;
7539;SDS011;3811;49.006;12.076;2023-07-13T12:50:53;1.30;;;1.20;;
7539;SDS011;3811;49.006;12.076;2023-07-13T12:53:24;3.93;;;1.33;;
7539;SDS011;3811;49.006;12.076;2023-07-13T12:55:56;2.03;;;1.40;;
7539;SDS011;3811;49.006;12.076;2023-07-13T12:58:25;1.27;;;1.17;;
7539;SDS011;3811;49.006;12.076;2023-07-13T13:00:54;3.17;;;1.67;;
7539;SDS011;3811;49.006;12.076;2023-07-13T13:03:23;1.30;;;1.20;;
7539;SDS011;3811;49.006;12.076;2023-07-13T13:05:57;2.77;;;1.70;;
7539;SDS011;3811;49.006;12.076;2023-07-13T13:08:31;1.53;;;1.40;;
7539;SDS011;3811;49.006;12.076;2023-07-13T13:11:00;4.13;;;1.50;;
7539;SDS011;3811;49.006;12.076;2023-07-13T13:13:27;1.20;;;1.10;;
7539;SDS011;3811;49.006;12.076;2023-07-13T13:15:55;1.40;;;1.30;;
7539;SDS011;3811;49.006;12.076;2023-07-13T13:18:23;1.55;;;1.40;;
7539;SDS011;3811;49.006;12.076;2023-07-13T13:20:50;2.63;;;1.35;;
7539;SDS011;3811;49.006;12.076;2023-07-13T13:23:18;1.60;;;1.50;;
7539;SDS011;3811;49.006;12.076;2023-07-13T13:25:49;2.25;;;1.23;;
7539;SDS011;3811;49.006;12.076;2023-07-13T13:28:17;1.98;;;1.75;;
7539;SDS011;3811;49.006;12.076;2023-07-13T13:30:49;2.40;;;1.55;;
7539;SDS011;3811;49.006;12.076;2023-07-13T13:33:18;2.47;;;1.40;;
7539;SDS011;3811;49.006;12.076;2023-07-13T13:35:46;3.53;;;1.30;;
7539;SDS011;3811;49.006;12.076;2023-07-13T13:38:14;1.67;;;1.58;;
7539;SDS011;3811;49.006;12.076;2023-07-13T13:40:42;1.48;;;1.38;;
7539;SDS011;3811;49.006;12.076;2023-07-13T13:43:18;1.35;;;1.20;;
7539;SDS011;3811;49.006;12.076;2023-07-13T13:45:51;3.60;;;1.35;;
7539;SDS011;3811;49.006;12.076;2023-07-13T13:48:20;3.63;;;1.40;;
7539;SDS011;3811;49.006;12.076;2023-07-13T13:50:55;1.85;;;1.38;;
7539;SDS011;3811;49.006;12.076;2023-07-13T13:53:22;2.85;;;1.55;;
7539;SDS011;3811;49.006;12.076;2023-07-13T13:55:50;1.67;;;1.20;;
7539;SDS011;3811;49.006;12.076;2023-07-13T13:58:19;1.92;;;1.40;;
7539;SDS011;3811;49.006;12.076;2023-07-13T14:00:47;1.98;;;1.40;;
7539;SDS011;3811;49.006;12.076;2023-07-13T14:03:15;2.30;;;1.43;;
7539;SDS011;3811;49.006;12.076;2023-07-13T14:05:45;1.40;;;1.30;;
7539;SDS011;3811;49.006;12.076;2023-07-13T14:08:13;1.83;;;1.60;;
7539;SDS011;3811;49.006;12.076;2023-07-13T14:10:41;2.33;;;1.40;;
7539;SDS011;3811;49.006;12.076;2023-07-13T14:13:13;3.70;;;1.40;;
7539;SDS011;3811;49.006;12.076;2023-07-13T14:15:45;2.70;;;1.70;;
7539;SDS011;3811;49.006;12.076;2023-07-13T14:18:12;1.73;;;1.40;;
7539;SDS011;3811;49.006;12.076;2023-07-13T14:20:43;3.40;;;1.70;;
7539;SDS011;3811;49.006;12.076;2023-07-13T14:23:11;1.37;;;1.27;;
7539;SDS011;3811;49.006;12.076;2023-07-13T14:25:39;2.90;;;1.70;;
7539;SDS011;3811;49.006;12.076;2023-07-13T14:28:14;1.53;;;1.43;;
7539;SDS011;3811;49.006;12.076;2023-07-13T14:30:47;3.83;;;1.60;;
7539;SDS011;3811;49.006;12.076;2023-07-13T14:33:14;1.10;;;1.10;;
7539;SDS011;3811;49.006;12.076;2023-07-13T14:35:44;1.63;;;1.50;;
7539;SDS011;3811;49.006;12.076;2023-07-13T14:38:12;4.60;;;1.57;;
7539;SDS011;3811;49.006;12.076;2023-07-13T14:40:41;2.27;;;1.47;;
7539;SDS011;3811;49.006;12.076;2023-07-13T14:43:12;3.13;;;1.67;;
7539;SDS011;3811;49.006;12.076;2023-07-13T14:45:43;2.38;;;1.60;;
7539;SDS011;3811;49.006;12.076;2023-07-13T14:48:14;1.65;;;1.55;;
7539;SDS011;3811;49.006;12.076;2023-07-13T14:50:45;3.78;;;1.60;;
7539;SDS011;3811;49.006;12.076;2023-07-13T14:53:13;1.30;;;1.20;;
7539;SDS011;3811;49.006;12.076;2023-07-13T14:55:40;2.42;;;1.58;;
7539;SDS011;3811;49.006;12.076;2023-07-13T14:58:07;2.17;;;1.70;;
7539;SDS011;3811;49.006;12.076;2023-07-13T15:00:35;1.63;;;1.48;;
7539;SDS011;3811;49.006;12.076;2023-07-13T15:03:03;2.17;;;1.67;;
7539;SDS011;3811;49.006;12.076;2023-07-13T15:05:32;1.77;;;1.40;;
7539;SDS011;3811;49.006;12.076;2023-07-13T15:08:00;1.92;;;1.60;;
7539;SDS011;3811;49.006;12.076;2023-07-13T15:10:29;1.67;;;1.35;;
7539;SDS011;3811;49.006;12.076;2023-07-13T15:12:58;1.88;;;1.52;;
7539;SDS011;3811;49.006;12.076;2023-07-13T15:15:28;2.72;;;1.80;;
7539;SDS011;3811;49.006;12.076;2023-07-13T15:17:57;2.15;;;1.50;;
7539;SDS011;3811;49.006;12.076;2023-07-13T15:20:27;1.60;;;1.50;;